Time;durP1;ratioP1;P1;durP2;ratioP2;P2;SDS_P1;SDS_P2;PMS_P1;PMS_P2;Temp;Humidity;BMP_temperature;BMP_pressure;BME280_temperature;BME280_humidity;BME280_pressure;Samples;Min_cycle;Max_cycle;Signal;HPM_P1;HPM_P2
2023/10/09 00:00:30;;;;;;;29.25;13.57;;;;;;;;;;6266029;28;20049;-61
2023/10/09 00:03:41;;;;;;;27.90;13.68;;;;;;;;;;6265064;28;20048;-63
2023/10/09 00:06:42;;;;;;;30.75;13.35;;;;;;;;;;6264842;28;20049;-58
2023/10/09 00:09:48;;;;;;;32.00;13.93;;;;;;;;;;6266483;28;20049;-60
2023/10/09 00:12:49;;;;;;;30.25;13.57;;;;;;;;;;6262333;28;20037;-60
2023/10/09 00:15:53;;;;;;;32.35;13.73;;;;;;;;;;6263684;28;20107;-61
2023/10/09 00:18:57;;;;;;;36.40;15.52;;;;;;;;;;6264449;28;20441;-60
2023/10/09 00:21:58;;;;;;;38.38;18.52;;;;;;;;;;6266145;28;20045;-60
2023/10/09 00:25:11;;;;;;;36.73;17.37;;;;;;;;;;6261832;28;20059;-57
2023/10/09 00:28:13;;;;;;;39.55;16.33;;;;;;;;;;6258192;28;20057;-54
2023/10/09 00:31:29;;;;;;;34.15;14.20;;;;;;;;;;6265303;28;20048;-62
2023/10/09 00:34:39;;;;;;;36.75;14.95;;;;;;;;;;6261996;28;20060;-60
2023/10/09 00:37:40;;;;;;;33.78;15.23;;;;;;;;;;6253468;28;20044;-57
2023/10/09 00:40:47;;;;;;;34.38;15.75;;;;;;;;;;6263879;28;20460;-61
2023/10/09 00:43:51;;;;;;;40.40;16.95;;;;;;;;;;6265629;28;20060;-61
2023/10/09 00:46:52;;;;;;;36.75;15.48;;;;;;;;;;6265864;28;20421;-60
2023/10/09 00:50:08;;;;;;;37.47;14.45;;;;;;;;;;6263113;28;20570;-59
2023/10/09 00:53:11;;;;;;;33.28;15.30;;;;;;;;;;6262983;28;20040;-62
2023/10/09 00:56:28;;;;;;;37.97;16.55;;;;;;;;;;6265240;28;20044;-58
2023/10/09 00:59:30;;;;;;;41.47;17.25;;;;;;;;;;6264489;28;20438;-62
2023/10/09 01:02:41;;;;;;;38.15;15.75;;;;;;;;;;6262742;28;20069;-59
2023/10/09 01:05:56;;;;;;;44.90;15.32;;;;;;;;;;6264225;28;20051;-60
2023/10/09 01:09:09;;;;;;;83.05;18.08;;;;;;;;;;6264952;28;20061;-60
2023/10/09 01:12:16;;;;;;;;;;;;;;;;;;6265314;28;20069;-59
2023/10/09 01:15:36;;;;;;;38.70;16.65;;;;;;;;;;6261318;28;19921;-59
2023/10/09 01:18:38;;;;;;;39.65;16.08;;;;;;;;;;6263534;28;20127;-61
2023/10/09 01:21:42;;;;;;;39.92;18.58;;;;;;;;;;6264039;28;20131;-61
2023/10/09 01:24:43;;;;;;;42.63;18.52;;;;;;;;;;6261445;28;20056;-60
2023/10/09 01:27:44;;;;;;;43.72;18.65;;;;;;;;;;6264281;28;20400;-60
2023/10/09 01:30:45;;;;;;;53.92;20.15;;;;;;;;;;6262012;28;20057;-62
2023/10/09 01:33:46;;;;;;;55.17;20.30;;;;;;;;;;6263403;28;20041;-59
2023/10/09 01:36:49;;;;;;;51.83;21.05;;;;;;;;;;6263901;28;20059;-61
2023/10/09 01:39:57;;;;;;;43.80;19.08;;;;;;;;;;6264266;28;20490;-61
2023/10/09 01:42:58;;;;;;;46.55;19.27;;;;;;;;;;6262519;28;20430;-62
2023/10/09 01:46:01;;;;;;;48.55;21.92;;;;;;;;;;6263700;28;20055;-62
2023/10/09 01:49:08;;;;;;;46.38;18.00;;;;;;;;;;6264279;28;20539;-62
2023/10/09 01:52:15;;;;;;;41.58;19.00;;;;;;;;;;6268293;28;20076;-60
2023/10/09 01:55:39;;;;;;;42.42;18.80;;;;;;;;;;6269830;28;20112;-62
2023/10/09 01:58:37;;;;;;;40.92;18.98;;;;;;;;;;6268233;28;20076;-61
2023/10/09 02:01:42;;;;;;;45.08;18.75;;;;;;;;;;6268064;28;20500;-60
2023/10/09 02:04:42;;;;;;;48.88;19.25;;;;;;;;;;6268899;28;20045;-62
2023/10/09 02:07:52;;;;;;;45.13;18.17;;;;;;;;;;6267055;28;20056;-60
2023/10/09 02:10:55;;;;;;;51.85;20.17;;;;;;;;;;6269255;28;20040;-62
2023/10/09 02:13:56;;;;;;;57.38;23.60;;;;;;;;;;6266791;28;20056;-62
2023/10/09 02:17:03;;;;;;;54.33;22.58;;;;;;;;;;6267064;28;20049;-62
2023/10/09 02:20:17;;;;;;;53.72;22.73;;;;;;;;;;6267806;28;20124;-59
2023/10/09 02:23:20;;;;;;;55.33;22.42;;;;;;;;;;6267442;28;20458;-62
2023/10/09 02:26:39;;;;;;;53.67;21.13;;;;;;;;;;6268394;28;20048;-57
2023/10/09 02:29:42;;;;;;;54.08;21.23;;;;;;;;;;6267558;28;20076;-62
2023/10/09 02:32:43;;;;;;;48.72;20.05;;;;;;;;;;6267983;28;20547;-58
2023/10/09 02:35:45;;;;;;;50.40;21.00;;;;;;;;;;6268417;28;20045;-63
2023/10/09 02:38:48;;;;;;;47.97;20.47;;;;;;;;;;6267778;28;20484;-57
2023/10/09 02:41:58;;;;;;;47.00;20.67;;;;;;;;;;6268325;28;20041;-61
2023/10/09 02:44:59;;;;;;;52.13;22.52;;;;;;;;;;6267919;28;20045;-61
2023/10/09 02:48:00;;;;;;;53.40;20.98;;;;;;;;;;6268158;28;20083;-62
2023/10/09 02:51:02;;;;;;;42.70;18.75;;;;;;;;;;6267151;28;20049;-62
2023/10/09 02:57:27;;;;;;;50.33;20.95;;;;;;;;;;6266835;28;19926;-57
2023/10/09 03:00:32;;;;;;;53.03;22.13;;;;;;;;;;6265864;28;20057;-62
2023/10/09 03:03:35;;;;;;;51.83;22.45;;;;;;;;;;6267126;28;20108;-60
2023/10/09 03:06:40;;;;;;;51.92;20.95;;;;;;;;;;6267135;28;20478;-62
2023/10/09 03:09:40;;;;;;;56.28;20.58;;;;;;;;;;6282533;28;20049;-60
2023/10/09 03:12:43;;;;;;;51.22;19.23;;;;;;;;;;6265602;28;20071;-59
2023/10/09 03:15:43;;;;;;;55.00;21.30;;;;;;;;;;6258743;28;20542;-61
2023/10/09 03:18:46;;;;;;;51.80;19.42;;;;;;;;;;6267789;28;20053;-60
2023/10/09 03:21:47;;;;;;;50.80;18.70;;;;;;;;;;6267102;28;20045;-60
2023/10/09 03:24:49;;;;;;;49.20;18.85;;;;;;;;;;6268747;28;20041;-59
2023/10/09 03:27:50;;;;;;;54.97;20.20;;;;;;;;;;6268894;28;20076;-60
2023/10/09 03:30:51;;;;;;;58.80;19.52;;;;;;;;;;6264315;28;20570;-62
2023/10/09 03:33:51;;;;;;;56.10;21.20;;;;;;;;;;6265279;28;20060;-61
2023/10/09 03:37:03;;;;;;;54.35;20.70;;;;;;;;;;6267169;28;20080;-62
2023/10/09 03:40:06;;;;;;;58.80;22.63;;;;;;;;;;6266767;28;20423;-61
2023/10/09 03:43:10;;;;;;;56.58;21.88;;;;;;;;;;6266389;28;20130;-61
2023/10/09 03:46:30;;;;;;;57.53;23.20;;;;;;;;;;6265830;28;20056;-59
2023/10/09 03:49:32;;;;;;;68.45;22.83;;;;;;;;;;6267215;28;20045;-60
2023/10/09 03:52:33;;;;;;;58.72;20.52;;;;;;;;;;6265522;28;20056;-61
2023/10/09 03:55:38;;;;;;;55.78;20.45;;;;;;;;;;6264887;28;20052;-52
2023/10/09 03:58:46;;;;;;;54.42;19.48;;;;;;;;;;6266758;28;20044;-61
2023/10/09 04:01:52;;;;;;;53.45;19.92;;;;;;;;;;6264971;28;20053;-54
2023/10/09 04:04:53;;;;;;;50.92;19.40;;;;;;;;;;6263256;28;20056;-58
2023/10/09 04:07:56;;;;;;;50.05;19.67;;;;;;;;;;6264725;28;20045;-61
2023/10/09 04:11:04;;;;;;;44.42;17.52;;;;;;;;;;6267620;28;20084;-60
2023/10/09 04:14:10;;;;;;;51.60;19.58;;;;;;;;;;6262050;28;20434;-60
2023/10/09 04:17:33;;;;;;;51.25;18.02;;;;;;;;;;6262022;28;20041;-61
2023/10/09 04:23:36;;;;;;;54.42;20.02;;;;;;;;;;6265034;28;20075;-60
2023/10/09 04:26:37;;;;;;;51.50;20.17;;;;;;;;;;6264534;28;20140;-62
2023/10/09 04:29:38;;;;;;;54.00;20.58;;;;;;;;;;6265678;28;20051;-61
2023/10/09 04:32:40;;;;;;;55.25;19.58;;;;;;;;;;6261202;28;20168;-59
2023/10/09 04:35:45;;;;;;;44.80;18.83;;;;;;;;;;6265252;28;20518;-60
2023/10/09 04:39:14;;;;;;;52.75;18.33;;;;;;;;;;6264748;28;20049;-59
2023/10/09 04:42:20;;;;;;;46.90;17.83;;;;;;;;;;6265416;28;20045;-61
2023/10/09 04:45:59;;;;;;;49.60;18.38;;;;;;;;;;6249336;28;20037;-55
2023/10/09 04:48:45;;;;;;;54.80;18.98;;;;;;;;;;6261075;28;20045;-61
2023/10/09 04:52:04;;;;;;;51.08;20.30;;;;;;;;;;6264029;28;20059;-64
2023/10/09 04:58:23;;;;;;;52.38;20.88;;;;;;;;;;6260667;28;20526;-62
2023/10/09 05:01:35;;;;;;;106.37;38.73;;;;;;;;;;6260561;28;20041;-60
2023/10/09 05:07:50;;;;;;;194.60;74.70;;;;;;;;;;6262467;28;20049;-62
2023/10/09 05:11:15;;;;;;;128.45;47.80;;;;;;;;;;6262260;28;20060;-61
2023/10/09 05:14:17;;;;;;;85.20;30.67;;;;;;;;;;6261695;28;20099;-63
2023/10/09 05:17:18;;;;;;;112.13;44.90;;;;;;;;;;6261438;28;20059;-61
2023/10/09 05:23:29;;;;;;;63.00;23.35;;;;;;;;;;6261689;28;20045;-63
2023/10/09 05:29:59;;;;;;;65.68;26.40;;;;;;;;;;6266002;28;20045;-63
2023/10/09 05:33:27;;;;;;;57.53;22.75;;;;;;;;;;6264749;28;20048;-62
2023/10/09 05:39:40;;;;;;;53.53;22.52;;;;;;;;;;6264333;28;20402;-61
2023/10/09 05:49:09;;;;;;;50.40;19.25;;;;;;;;;;6275124;28;20156;-61
2023/10/09 05:57:10;;;;;;;54.65;22.10;;;;;;;;;;6264370;28;20048;-63
2023/10/09 06:12:49;;;;;;;53.55;20.90;;;;;;;;;;6264894;28;20041;-61
2023/10/09 06:22:56;;;;;;;80.07;30.42;;;;;;;;;;6261585;28;20045;-61
2023/10/09 06:25:39;;;;;;;95.50;35.40;;;;;;;;;;6263619;28;20051;-63
2023/10/09 06:28:49;;;;;;;91.60;34.33;;;;;;;;;;6263804;28;20397;-60
2023/10/09 06:31:59;;;;;;;73.88;28.77;;;;;;;;;;6263729;28;20090;-61
2023/10/09 06:38:22;;;;;;;71.68;27.50;;;;;;;;;;6241232;28;20076;-59
2023/10/09 06:41:34;;;;;;;70.53;25.33;;;;;;;;;;6260884;28;20292;-62
2023/10/09 06:48:40;;;;;;;79.50;27.38;;;;;;;;;;6262427;28;20136;-63
2023/10/09 06:54:37;;;;;;;81.65;30.63;;;;;;;;;;6268150;28;20041;-63
2023/10/09 06:57:43;;;;;;;77.90;32.28;;;;;;;;;;6268333;28;20127;-63
2023/10/09 07:04:10;;;;;;;72.95;27.98;;;;;;;;;;6266961;28;20056;-61
2023/10/09 07:07:16;;;;;;;85.95;31.00;;;;;;;;;;6266167;28;20068;-63
2023/10/09 07:10:32;;;;;;;66.68;26.15;;;;;;;;;;6267541;28;20040;-63
2023/10/09 07:13:37;;;;;;;71.70;27.65;;;;;;;;;;6268506;28;20049;-62
2023/10/09 07:16:56;;;;;;;71.93;27.50;;;;;;;;;;6268219;28;20064;-63
2023/10/09 07:20:08;;;;;;;79.97;29.15;;;;;;;;;;6264450;28;20056;-63
2023/10/09 07:23:14;;;;;;;78.72;30.05;;;;;;;;;;6268420;28;20048;-64
2023/10/09 07:26:18;;;;;;;65.25;25.55;;;;;;;;;;6268343;28;20053;-63
2023/10/09 07:29:23;;;;;;;70.47;26.02;;;;;;;;;;6268057;28;20044;-63
2023/10/09 07:32:27;;;;;;;82.30;30.15;;;;;;;;;;6267458;28;20043;-64
2023/10/09 07:38:45;;;;;;;62.67;25.35;;;;;;;;;;6265285;28;20102;-64
2023/10/09 07:41:56;;;;;;;60.85;24.27;;;;;;;;;;6266326;28;20045;-64
2023/10/09 07:44:57;;;;;;;53.55;21.40;;;;;;;;;;6267044;28;20049;-64
2023/10/09 07:48:05;;;;;;;60.33;22.00;;;;;;;;;;6264740;28;20081;-64
2023/10/09 07:51:12;;;;;;;59.17;22.98;;;;;;;;;;6267033;28;20132;-64
2023/10/09 07:54:15;;;;;;;54.90;22.08;;;;;;;;;;6266392;28;20147;-64
2023/10/09 07:57:16;;;;;;;58.25;23.42;;;;;;;;;;6266502;28;20051;-62
2023/10/09 08:03:37;;;;;;;62.08;20.17;;;;;;;;;;6267246;28;20135;-63
2023/10/09 08:06:38;;;;;;;48.95;17.42;;;;;;;;;;6263724;28;20872;-63
2023/10/09 08:09:48;;;;;;;43.60;17.73;;;;;;;;;;6263549;28;20044;-64
2023/10/09 08:15:56;;;;;;;48.28;18.02;;;;;;;;;;6265942;28;20072;-63
2023/10/09 08:18:57;;;;;;;50.45;18.73;;;;;;;;;;6267001;28;20049;-63
2023/10/09 08:22:37;;;;;;;45.72;16.63;;;;;;;;;;6266343;28;20130;-60
2023/10/09 08:25:57;;;;;;;59.15;20.05;;;;;;;;;;6255073;28;20045;-61
2023/10/09 08:29:16;;;;;;;69.28;22.90;;;;;;;;;;6265856;28;20041;-64
2023/10/09 08:32:38;;;;;;;73.75;24.67;;;;;;;;;;6263384;28;20049;-64
2023/10/09 08:35:48;;;;;;;82.57;23.03;;;;;;;;;;6264455;28;20041;-61
2023/10/09 08:38:49;;;;;;;86.65;26.23;;;;;;;;;;6266052;28;20772;-62
2023/10/09 08:41:50;;;;;;;79.55;27.38;;;;;;;;;;6264728;28;20435;-64
2023/10/09 08:44:52;;;;;;;69.95;21.95;;;;;;;;;;6265425;28;20055;-61
2023/10/09 08:47:56;;;;;;;63.00;21.35;;;;;;;;;;6266375;28;20176;-58
2023/10/09 08:50:57;;;;;;;64.32;21.55;;;;;;;;;;6262872;28;20040;-62
2023/10/09 08:53:58;;;;;;;87.88;32.25;;;;;;;;;;6264298;28;20090;-64
2023/10/09 08:56:59;;;;;;;72.82;27.77;;;;;;;;;;6266837;28;20049;-64
2023/10/09 09:00:01;;;;;;;45.30;16.23;;;;;;;;;;6262987;28;20045;-63
2023/10/09 09:03:01;;;;;;;41.63;14.20;;;;;;;;;;6264029;28;20052;-63
2023/10/09 09:06:02;;;;;;;36.13;12.32;;;;;;;;;;6266410;28;20071;-63
2023/10/09 09:09:13;;;;;;;40.42;14.45;;;;;;;;;;6263288;28;20052;-63
2023/10/09 09:12:15;;;;;;;24.70;8.93;;;;;;;;;;6262021;28;20488;-64
2023/10/09 09:15:20;;;;;;;25.83;7.97;;;;;;;;;;6265935;28;20060;-62
2023/10/09 09:18:22;;;;;;;31.77;11.32;;;;;;;;;;6263249;28;20132;-62
2023/10/09 09:21:22;;;;;;;21.25;7.68;;;;;;;;;;6264427;28;20084;-64
2023/10/09 09:27:42;;;;;;;25.55;10.45;;;;;;;;;;6264461;28;20048;-63
2023/10/09 09:30:50;;;;;;;27.17;10.63;;;;;;;;;;6265175;28;20067;-62
2023/10/09 09:33:58;;;;;;;27.50;10.38;;;;;;;;;;6263759;28;20148;-63
2023/10/09 09:36:59;;;;;;;23.23;8.95;;;;;;;;;;6259165;28;20131;-64
2023/10/09 09:40:00;;;;;;;19.52;8.52;;;;;;;;;;6265490;28;20071;-64
2023/10/09 09:43:05;;;;;;;23.85;8.85;;;;;;;;;;6263182;28;20079;-63
2023/10/09 09:46:08;;;;;;;24.17;10.07;;;;;;;;;;6262980;28;20036;-64
2023/10/09 09:49:16;;;;;;;19.05;7.38;;;;;;;;;;6264695;28;20048;-65
2023/10/09 09:52:18;;;;;;;16.60;7.15;;;;;;;;;;6263056;28;20045;-61
2023/10/09 09:55:22;;;;;;;23.10;7.88;;;;;;;;;;6264153;28;20496;-64
2023/10/09 09:58:32;;;;;;;19.10;8.13;;;;;;;;;;6263622;28;20545;-63
2023/10/09 10:01:39;;;;;;;27.75;10.63;;;;;;;;;;6256923;28;20908;-58
2023/10/09 10:04:42;;;;;;;22.55;10.07;;;;;;;;;;6263147;28;20187;-60
2023/10/09 10:07:43;;;;;;;26.00;8.85;;;;;;;;;;6262658;28;20094;-62
2023/10/09 10:10:52;;;;;;;20.38;8.45;;;;;;;;;;6263207;28;20044;-58
2023/10/09 10:13:56;;;;;;;26.15;10.00;;;;;;;;;;6268857;28;20084;-55
2023/10/09 10:17:01;;;;;;;23.40;10.73;;;;;;;;;;6268803;28;20134;-58
2023/10/09 10:23:20;;;;;;;30.38;13.25;;;;;;;;;;6268096;28;20079;-62
2023/10/09 10:26:26;;;;;;;35.38;12.75;;;;;;;;;;6268975;28;20072;-62
2023/10/09 10:29:32;;;;;;;29.13;10.52;;;;;;;;;;6265876;28;20095;-61
2023/10/09 10:32:51;;;;;;;55.00;16.48;;;;;;;;;;6267389;28;20140;-61
2023/10/09 10:39:21;;;;;;;39.80;12.07;;;;;;;;;;6268261;28;20475;-64
2023/10/09 10:42:33;;;;;;;39.55;10.65;;;;;;;;;;6259041;28;20041;-65
2023/10/09 10:45:35;;;;;;;;;;;;;;;;;;6267936;28;20403;-60
2023/10/09 10:48:39;;;;;;;28.05;9.07;;;;;;;;;;6268564;28;19921;-62
2023/10/09 10:51:39;;;;;;;34.55;10.93;;;;;;;;;;6268714;28;20037;-60
2023/10/09 10:57:53;;;;;;;25.75;9.52;;;;;;;;;;6265838;28;20049;-60
2023/10/09 11:03:58;;;;;;;31.98;11.48;;;;;;;;;;6267891;28;20106;-63
2023/10/09 11:07:09;;;;;;;35.80;12.88;;;;;;;;;;6268037;28;20563;-58
2023/10/09 11:10:13;;;;;;;55.40;17.98;;;;;;;;;;6268220;28;20048;-62
2023/10/09 11:13:31;;;;;;;31.20;11.95;;;;;;;;;;6268045;28;20158;-61
2023/10/09 11:16:42;;;;;;;16.73;7.70;;;;;;;;;;6266730;28;20064;-61
2023/10/09 11:19:43;;;;;;;16.92;5.95;;;;;;;;;;6265567;28;20060;-62
2023/10/09 11:23:14;;;;;;;28.35;9.60;;;;;;;;;;6266711;28;20045;-56
2023/10/09 11:26:23;;;;;;;16.50;6.93;;;;;;;;;;6267536;28;20071;-63
2023/10/09 11:29:52;;;;;;;21.55;8.88;;;;;;;;;;6265356;28;20472;-63
2023/10/09 11:32:51;;;;;;;14.45;6.13;;;;;;;;;;6268161;28;20649;-58
2023/10/09 11:35:58;;;;;;;19.75;6.88;;;;;;;;;;6269600;28;20059;-56
2023/10/09 11:39:18;;;;;;;15.50;6.13;;;;;;;;;;6267170;28;20052;-63
2023/10/09 11:42:48;;;;;;;15.10;6.22;;;;;;;;;;6268067;28;20044;-63
2023/10/09 11:45:55;;;;;;;19.92;8.10;;;;;;;;;;6267105;28;20408;-61
2023/10/09 11:55:36;;;;;;;19.33;8.32;;;;;;;;;;6265595;28;20502;-62
2023/10/09 11:58:40;;;;;;;14.25;6.00;;;;;;;;;;6266568;28;20045;-62
2023/10/09 12:01:52;;;;;;;13.75;5.50;;;;;;;;;;6262919;28;20122;-60
2023/10/09 12:04:55;;;;;;;15.18;6.68;;;;;;;;;;6266090;28;20060;-61
2023/10/09 12:07:57;;;;;;;13.38;5.80;;;;;;;;;;6264646;28;20163;-52
2023/10/09 12:10:58;;;;;;;20.42;10.68;;;;;;;;;;6266467;28;20037;-60
2023/10/09 12:14:00;;;;;;;18.42;9.50;;;;;;;;;;6266406;28;20045;-62
2023/10/09 12:17:07;;;;;;;16.00;8.38;;;;;;;;;;6265408;28;20449;-62
2023/10/09 12:20:14;;;;;;;20.08;7.90;;;;;;;;;;6258906;28;20132;-59
2023/10/09 12:23:14;;;;;;;23.30;9.40;;;;;;;;;;6264495;28;20037;-59
2023/10/09 12:26:15;;;;;;;24.50;9.65;;;;;;;;;;6265085;28;20037;-62
2023/10/09 12:29:16;;;;;;;18.98;7.95;;;;;;;;;;6267374;28;20110;-60
2023/10/09 12:32:20;;;;;;;11.98;5.90;;;;;;;;;;6253091;28;20045;-59
2023/10/09 12:35:21;;;;;;;14.25;7.10;;;;;;;;;;6253366;28;20523;-61
2023/10/09 12:38:22;;;;;;;17.48;8.45;;;;;;;;;;6249106;28;20053;-61
2023/10/09 12:41:27;;;;;;;14.73;7.30;;;;;;;;;;6252270;28;20083;-59
2023/10/09 12:44:27;;;;;;;102.78;44.35;;;;;;;;;;6251084;28;20385;-52
2023/10/09 12:47:28;;;;;;;16.63;8.02;;;;;;;;;;6250227;28;20060;-55
2023/10/09 12:50:33;;;;;;;13.57;7.25;;;;;;;;;;6254362;28;20055;-55
2023/10/09 12:53:33;;;;;;;27.15;13.55;;;;;;;;;;6249615;28;20085;-60
2023/10/09 12:56:37;;;;;;;21.83;10.63;;;;;;;;;;6254960;28;20462;-61
2023/10/09 12:59:37;;;;;;;17.95;9.88;;;;;;;;;;6251760;28;21218;-62
2023/10/09 13:02:43;;;;;;;16.42;8.60;;;;;;;;;;6251705;28;20542;-60
2023/10/09 13:05:54;;;;;;;14.63;7.38;;;;;;;;;;6251973;28;20064;-62
2023/10/09 13:08:59;;;;;;;13.27;7.53;;;;;;;;;;6253008;28;20078;-57
2023/10/09 13:12:03;;;;;;;11.63;5.80;;;;;;;;;;6252962;28;21250;-58
2023/10/09 13:15:09;;;;;;;11.90;7.78;;;;;;;;;;6252964;28;20126;-55
2023/10/09 13:18:09;;;;;;;16.73;8.00;;;;;;;;;;6254133;28;20397;-59
2023/10/09 13:21:10;;;;;;;20.23;11.05;;;;;;;;;;6252156;28;20076;-56
2023/10/09 13:24:15;;;;;;;26.73;12.52;;;;;;;;;;6249586;28;20099;-59
2023/10/09 13:27:21;;;;;;;23.42;12.07;;;;;;;;;;6255275;28;20500;-62
2023/10/09 13:30:22;;;;;;;34.15;15.20;;;;;;;;;;6254353;28;20076;-60
2023/10/09 13:33:22;;;;;;;27.63;13.80;;;;;;;;;;6250729;28;20550;-55
2023/10/09 13:36:45;;;;;;;29.30;14.95;;;;;;;;;;6250876;28;20041;-61
2023/10/09 13:39:52;;;;;;;25.40;11.88;;;;;;;;;;6254408;28;20044;-58
2023/10/09 13:42:58;;;;;;;26.73;13.05;;;;;;;;;;6252829;28;20053;-61
2023/10/09 13:46:03;;;;;;;26.23;14.27;;;;;;;;;;6250743;28;20420;-58
2023/10/09 13:49:09;;;;;;;22.33;12.77;;;;;;;;;;6253197;28;20160;-56
2023/10/09 13:52:09;;;;;;;19.70;11.20;;;;;;;;;;6250255;28;20057;-61
2023/10/09 13:55:16;;;;;;;16.73;9.75;;;;;;;;;;6253906;28;20081;-55
2023/10/09 13:58:20;;;;;;;29.30;14.10;;;;;;;;;;6252386;28;20411;-54
2023/10/09 14:01:27;;;;;;;23.63;12.65;;;;;;;;;;6252774;28;20057;-56
2023/10/09 14:04:28;;;;;;;17.73;9.88;;;;;;;;;;6255771;28;20049;-59
2023/10/09 14:07:29;;;;;;;20.55;11.40;;;;;;;;;;6253828;28;20508;-60
2023/10/09 14:10:30;;;;;;;20.35;11.90;;;;;;;;;;6253576;28;20041;-56
2023/10/09 14:13:30;;;;;;;22.63;11.88;;;;;;;;;;6250407;28;20071;-58
2023/10/09 14:16:33;;;;;;;23.75;12.40;;;;;;;;;;6250038;28;20159;-52
2023/10/09 14:19:33;;;;;;;129.40;40.47;;;;;;;;;;6252652;28;20221;-59
2023/10/09 14:22:38;;;;;;;32.03;14.43;;;;;;;;;;6250488;28;20488;-56
2023/10/09 14:25:39;;;;;;;16.77;8.82;;;;;;;;;;6252970;28;20049;-62
2023/10/09 14:28:42;;;;;;;17.27;8.90;;;;;;;;;;6251447;28;20409;-62
2023/10/09 14:31:49;;;;;;;54.90;24.92;;;;;;;;;;6251854;28;20049;-60
2023/10/09 14:34:50;;;;;;;80.70;33.35;;;;;;;;;;6251469;28;20048;-58
2023/10/09 14:37:51;;;;;;;24.83;12.70;;;;;;;;;;6251105;28;20060;-50
2023/10/09 14:40:57;;;;;;;24.10;13.83;;;;;;;;;;6252019;28;20579;-59
2023/10/09 14:43:58;;;;;;;29.02;13.60;;;;;;;;;;6249538;28;20052;-53
2023/10/09 14:46:59;;;;;;;26.25;14.18;;;;;;;;;;6252919;28;20101;-53
2023/10/09 14:50:01;;;;;;;29.33;14.90;;;;;;;;;;6253194;28;20391;-54
2023/10/09 14:53:02;;;;;;;42.17;18.65;;;;;;;;;;6250204;28;20060;-51
2023/10/09 14:56:08;;;;;;;34.45;15.50;;;;;;;;;;6251334;28;20041;-54
2023/10/09 14:59:11;;;;;;;35.42;17.60;;;;;;;;;;6252928;28;20136;-55
2023/10/09 15:02:14;;;;;;;34.78;17.25;;;;;;;;;;6255279;28;20065;-53
2023/10/09 15:05:16;;;;;;;56.65;22.90;;;;;;;;;;6258011;28;20045;-53
2023/10/09 15:08:17;;;;;;;40.75;18.48;;;;;;;;;;6259131;28;20049;-52
2023/10/09 15:11:23;;;;;;;48.92;23.83;;;;;;;;;;6257757;28;20049;-56
2023/10/09 15:14:23;;;;;;;42.85;20.88;;;;;;;;;;6256996;28;20084;-53
2023/10/09 15:17:24;;;;;;;38.45;20.20;;;;;;;;;;6257532;28;20505;-50
2023/10/09 15:20:25;;;;;;;36.00;17.35;;;;;;;;;;6259402;28;20404;-53
2023/10/09 15:23:26;;;;;;;33.60;17.02;;;;;;;;;;6255857;28;20653;-52
2023/10/09 15:26:32;;;;;;;38.20;17.57;;;;;;;;;;6255023;28;20049;-49
2023/10/09 15:29:33;;;;;;;35.38;17.55;;;;;;;;;;6258480;28;20548;-53
2023/10/09 15:32:34;;;;;;;33.95;15.75;;;;;;;;;;6258045;28;20091;-50
2023/10/09 15:35:35;;;;;;;30.77;16.80;;;;;;;;;;6256823;28;20548;-54
2023/10/09 15:38:36;;;;;;;33.55;17.15;;;;;;;;;;6256810;28;20057;-58
2023/10/09 15:41:39;;;;;;;34.03;16.50;;;;;;;;;;6255626;28;20045;-52
2023/10/09 15:44:41;;;;;;;33.63;16.80;;;;;;;;;;6255698;28;20045;-59
2023/10/09 15:47:44;;;;;;;36.03;16.33;;;;;;;;;;6257027;28;20423;-63
2023/10/09 15:50:50;;;;;;;29.95;15.73;;;;;;;;;;6257704;28;20107;-55
2023/10/09 15:53:51;;;;;;;34.17;16.92;;;;;;;;;;6256634;28;20063;-53
2023/10/09 15:56:54;;;;;;;39.33;19.90;;;;;;;;;;6256703;28;20503;-50
2023/10/09 15:59:55;;;;;;;44.78;20.90;;;;;;;;;;6258165;28;20629;-51
2023/10/09 16:02:56;;;;;;;41.13;20.42;;;;;;;;;;6256479;28;20063;-50
2023/10/09 16:05:58;;;;;;;44.58;21.45;;;;;;;;;;6257152;28;20049;-54
2023/10/09 16:08:59;;;;;;;;;;;;;;;;;;6253823;28;20539;-49
2023/10/09 16:12:00;;;;;;;81.18;35.75;;;;;;;;;;6253420;28;19928;-51
2023/10/09 16:15:01;;;;;;;64.43;29.17;;;;;;;;;;6256223;28;20056;-52
2023/10/09 16:18:06;;;;;;;58.23;27.50;;;;;;;;;;6255490;28;20044;-53
2023/10/09 16:21:08;;;;;;;60.15;28.33;;;;;;;;;;6257319;28;20044;-50
2023/10/09 16:24:09;;;;;;;60.10;29.67;;;;;;;;;;6254654;28;20045;-55
2023/10/09 16:27:10;;;;;;;48.53;23.40;;;;;;;;;;6254898;28;20052;-50
2023/10/09 16:30:14;;;;;;;50.50;23.23;;;;;;;;;;6256289;28;20053;-58
2023/10/09 16:33:16;;;;;;;54.60;25.40;;;;;;;;;;6252005;28;20641;-53
2023/10/09 16:36:16;;;;;;;56.65;26.33;;;;;;;;;;6253910;28;20049;-55
2023/10/09 16:39:22;;;;;;;56.65;25.15;;;;;;;;;;6254791;28;20052;-54
2023/10/09 16:42:24;;;;;;;58.60;28.15;;;;;;;;;;6255372;28;20393;-54
2023/10/09 16:45:26;;;;;;;54.97;23.98;;;;;;;;;;6256280;28;20049;-53
2023/10/09 16:48:27;;;;;;;54.35;24.60;;;;;;;;;;6256968;28;20049;-50
2023/10/09 16:51:28;;;;;;;57.28;27.08;;;;;;;;;;6258579;28;20049;-50
2023/10/09 16:54:28;;;;;;;61.30;28.92;;;;;;;;;;6255565;28;20488;-54
2023/10/09 16:57:29;;;;;;;62.45;28.52;;;;;;;;;;6255800;28;20048;-53
2023/10/09 17:00:34;;;;;;;64.80;27.50;;;;;;;;;;6256524;28;20174;-52
2023/10/09 17:03:38;;;;;;;60.85;26.88;;;;;;;;;;6254470;28;20492;-56
2023/10/09 17:06:39;;;;;;;52.47;24.65;;;;;;;;;;6255746;28;20041;-56
2023/10/09 17:09:42;;;;;;;56.30;24.75;;;;;;;;;;6254416;28;20052;-56
2023/10/09 17:12:46;;;;;;;52.03;24.00;;;;;;;;;;6256144;28;20045;-55
2023/10/09 17:15:52;;;;;;;71.95;29.17;;;;;;;;;;6256168;28;20091;-56
2023/10/09 17:18:53;;;;;;;63.00;27.92;;;;;;;;;;6256166;28;20055;-53
2023/10/09 17:21:56;;;;;;;65.20;26.88;;;;;;;;;;6254519;28;20044;-56
2023/10/09 17:24:57;;;;;;;66.30;27.13;;;;;;;;;;6256337;28;20032;-51
2023/10/09 17:28:00;;;;;;;63.60;25.10;;;;;;;;;;6256150;28;20154;-57
2023/10/09 17:31:02;;;;;;;56.95;23.85;;;;;;;;;;6256773;28;20056;-54
2023/10/09 17:34:03;;;;;;;54.92;22.48;;;;;;;;;;6253441;28;20126;-54
2023/10/09 17:37:05;;;;;;;62.72;25.67;;;;;;;;;;6256146;28;20095;-59
2023/10/09 17:40:08;;;;;;;57.75;25.58;;;;;;;;;;6255401;28;20049;-56
2023/10/09 17:43:09;;;;;;;61.20;24.08;;;;;;;;;;6252162;28;20048;-54
2023/10/09 17:46:11;;;;;;;59.00;22.95;;;;;;;;;;6256395;28;20045;-52
2023/10/09 17:49:12;;;;;;;54.58;22.60;;;;;;;;;;6256196;28;20540;-61
2023/10/09 17:52:13;;;;;;;60.67;23.67;;;;;;;;;;6253904;28;20081;-57
2023/10/09 17:55:17;;;;;;;53.10;20.92;;;;;;;;;;6256865;28;20530;-56
2023/10/09 17:58:18;;;;;;;48.90;20.85;;;;;;;;;;6255316;28;20045;-55
2023/10/09 18:01:18;;;;;;;57.78;22.88;;;;;;;;;;6255903;28;20128;-55
2023/10/09 18:04:19;;;;;;;59.40;24.58;;;;;;;;;;6253016;28;20069;-57
2023/10/09 18:07:20;;;;;;;64.45;26.27;;;;;;;;;;6255741;28;20128;-56
2023/10/09 18:10:22;;;;;;;62.88;25.85;;;;;;;;;;6255764;28;20053;-58
2023/10/09 18:13:24;;;;;;;62.58;25.98;;;;;;;;;;6252618;28;20555;-59
2023/10/09 18:16:25;;;;;;;59.17;23.75;;;;;;;;;;6254373;28;20045;-57
2023/10/09 18:19:28;;;;;;;57.28;21.98;;;;;;;;;;6253979;28;20139;-59
2023/10/09 18:22:29;;;;;;;53.65;21.90;;;;;;;;;;6252538;28;20048;-58
2023/10/09 18:25:30;;;;;;;62.45;25.60;;;;;;;;;;6255588;28;20041;-56
2023/10/09 18:28:30;;;;;;;59.90;22.38;;;;;;;;;;6249043;28;20053;-54
2023/10/09 18:31:31;;;;;;;53.13;21.02;;;;;;;;;;6251660;28;20079;-51
2023/10/09 18:34:32;;;;;;;55.58;22.27;;;;;;;;;;6252369;28;20041;-56
2023/10/09 18:37:32;;;;;;;55.78;21.75;;;;;;;;;;6251291;28;20068;-53
2023/10/09 18:40:35;;;;;;;61.17;23.25;;;;;;;;;;6255240;28;20091;-51
2023/10/09 18:43:39;;;;;;;62.05;24.77;;;;;;;;;;6251713;28;20055;-54
2023/10/09 18:46:40;;;;;;;59.92;24.55;;;;;;;;;;6252591;28;20524;-56
2023/10/09 18:49:41;;;;;;;69.32;26.60;;;;;;;;;;6252770;28;20049;-60
2023/10/09 18:52:45;;;;;;;71.07;26.98;;;;;;;;;;6249796;28;20406;-53
2023/10/09 18:55:48;;;;;;;56.03;24.63;;;;;;;;;;6251230;28;20041;-50
2023/10/09 18:58:50;;;;;;;56.08;22.13;;;;;;;;;;6254403;28;20139;-52
2023/10/09 19:01:51;;;;;;;48.95;20.58;;;;;;;;;;6253167;28;20712;-52
2023/10/09 19:04:52;;;;;;;53.90;22.38;;;;;;;;;;6253614;28;20049;-53
2023/10/09 19:07:55;;;;;;;56.60;22.23;;;;;;;;;;6253543;28;20057;-54
2023/10/09 19:11:00;;;;;;;52.22;21.40;;;;;;;;;;6251326;28;20623;-54
2023/10/09 19:14:01;;;;;;;52.95;20.48;;;;;;;;;;6249977;28;20048;-54
2023/10/09 19:17:02;;;;;;;46.90;19.27;;;;;;;;;;6254314;28;20056;-51
2023/10/09 19:20:11;;;;;;;41.08;17.70;;;;;;;;;;6254648;28;20059;-53
2023/10/09 19:23:12;;;;;;;44.55;19.90;;;;;;;;;;6252667;28;20048;-53
2023/10/09 19:26:14;;;;;;;57.08;23.75;;;;;;;;;;6256496;28;20470;-51
2023/10/09 19:29:15;;;;;;;53.57;20.00;;;;;;;;;;6255441;28;20053;-51
2023/10/09 19:32:17;;;;;;;57.50;23.67;;;;;;;;;;6251281;28;20051;-52
2023/10/09 19:35:20;;;;;;;58.95;23.95;;;;;;;;;;6254935;28;20512;-53